sensor_id;sensor_type;location;lat;lon;timestamp;temperature;humidity
67093;SHT31;54011;50.772;7.730;2023-03-08T00:00:15;2.69;85.03
67093;SHT31;54011;50.772;7.730;2023-03-08T00:02:41;2.92;84.66
67093;SHT31;54011;50.772;7.730;2023-03-08T00:05:07;2.94;84.59
67093;SHT31;54011;50.772;7.730;2023-03-08T00:07:33;2.97;84.55
67093;SHT31;54011;50.772;7.730;2023-03-08T00:09:58;2.97;84.63
67093;SHT31;54011;50.772;7.730;2023-03-08T00:12:24;2.76;84.45
67093;SHT31;54011;50.772;7.730;2023-03-08T00:14:49;2.76;84.95
67093;SHT31;54011;50.772;7.730;2023-03-08T00:17:16;2.66;84.84
67093;SHT31;54011;50.772;7.730;2023-03-08T00:19:42;2.60;85.53
67093;SHT31;54011;50.772;7.730;2023-03-08T00:22:08;2.73;85.14
67093;SHT31;54011;50.772;7.730;2023-03-08T00:24:33;2.82;84.58
67093;SHT31;54011;50.772;7.730;2023-03-08T00:26:59;2.83;84.65
67093;SHT31;54011;50.772;7.730;2023-03-08T00:29:24;2.79;84.55
67093;SHT31;54011;50.772;7.730;2023-03-08T00:31:50;2.84;85.00
67093;SHT31;54011;50.772;7.730;2023-03-08T00:34:16;2.86;84.48
67093;SHT31;54011;50.772;7.730;2023-03-08T00:36:41;2.72;85.56
67093;SHT31;54011;50.772;7.730;2023-03-08T00:39:08;2.72;85.43
67093;SHT31;54011;50.772;7.730;2023-03-08T00:41:34;2.80;85.45
67093;SHT31;54011;50.772;7.730;2023-03-08T00:43:59;2.73;84.93
67093;SHT31;54011;50.772;7.730;2023-03-08T00:46:26;2.69;85.21
67093;SHT31;54011;50.772;7.730;2023-03-08T00:48:52;2.67;85.50
67093;SHT31;54011;50.772;7.730;2023-03-08T00:51:19;2.69;85.50
67093;SHT31;54011;50.772;7.730;2023-03-08T00:53:46;2.45;85.97
67093;SHT31;54011;50.772;7.730;2023-03-08T00:56:11;2.62;85.78
67093;SHT31;54011;50.772;7.730;2023-03-08T00:58:39;2.75;85.35
67093;SHT31;54011;50.772;7.730;2023-03-08T01:01:05;2.71;85.71
67093;SHT31;54011;50.772;7.730;2023-03-08T01:03:31;2.53;85.84
67093;SHT31;54011;50.772;7.730;2023-03-08T01:05:57;2.62;85.66
67093;SHT31;54011;50.772;7.730;2023-03-08T01:08:24;2.76;85.67
67093;SHT31;54011;50.772;7.730;2023-03-08T01:10:56;2.75;85.08
67093;SHT31;54011;50.772;7.730;2023-03-08T01:13:26;2.87;85.09
67093;SHT31;54011;50.772;7.730;2023-03-08T01:15:52;2.76;84.93
67093;SHT31;54011;50.772;7.730;2023-03-08T01:18:18;2.87;84.66
67093;SHT31;54011;50.772;7.730;2023-03-08T01:20:43;2.87;84.50
67093;SHT31;54011;50.772;7.730;2023-03-08T01:23:09;2.45;85.52
67093;SHT31;54011;50.772;7.730;2023-03-08T01:25:35;2.50;85.81
67093;SHT31;54011;50.772;7.730;2023-03-08T01:28:00;2.69;85.74
67093;SHT31;54011;50.772;7.730;2023-03-08T01:30:26;2.77;85.34
67093;SHT31;54011;50.772;7.730;2023-03-08T01:32:52;2.73;85.27
67093;SHT31;54011;50.772;7.730;2023-03-08T01:35:17;2.59;85.29
67093;SHT31;54011;50.772;7.730;2023-03-08T01:37:49;2.72;85.10
67093;SHT31;54011;50.772;7.730;2023-03-08T01:40:17;2.63;85.46
67093;SHT31;54011;50.772;7.730;2023-03-08T01:42:43;2.64;85.46
67093;SHT31;54011;50.772;7.730;2023-03-08T01:48:13;2.84;84.79
67093;SHT31;54011;50.772;7.730;2023-03-08T01:51:00;2.69;85.51
67093;SHT31;54011;50.772;7.730;2023-03-08T01:53:29;2.86;84.92
67093;SHT31;54011;50.772;7.730;2023-03-08T01:55:55;2.82;85.10
67093;SHT31;54011;50.772;7.730;2023-03-08T01:58:21;2.84;84.84
67093;SHT31;54011;50.772;7.730;2023-03-08T02:00:46;2.89;84.75
67093;SHT31;54011;50.772;7.730;2023-03-08T02:03:12;2.80;84.48
67093;SHT31;54011;50.772;7.730;2023-03-08T02:05:41;2.80;85.18
67093;SHT31;54011;50.772;7.730;2023-03-08T02:08:13;2.89;84.23
67093;SHT31;54011;50.772;7.730;2023-03-08T02:10:40;2.96;84.23
67093;SHT31;54011;50.772;7.730;2023-03-08T02:13:06;2.94;84.63
67093;SHT31;54011;50.772;7.730;2023-03-08T02:15:37;2.90;84.82
67093;SHT31;54011;50.772;7.730;2023-03-08T02:18:03;2.82;84.37
67093;SHT31;54011;50.772;7.730;2023-03-08T02:20:37;2.69;84.93
67093;SHT31;54011;50.772;7.730;2023-03-08T02:23:17;2.90;84.83
67093;SHT31;54011;50.772;7.730;2023-03-08T02:25:52;2.92;84.86
67093;SHT31;54011;50.772;7.730;2023-03-08T02:28:19;2.96;84.55
67093;SHT31;54011;50.772;7.730;2023-03-08T02:30:45;2.82;84.31
67093;SHT31;54011;50.772;7.730;2023-03-08T02:33:13;2.83;84.62
67093;SHT31;54011;50.772;7.730;2023-03-08T02:35:38;2.84;84.71
67093;SHT31;54011;50.772;7.730;2023-03-08T02:38:08;2.63;84.80
67093;SHT31;54011;50.772;7.730;2023-03-08T02:40:35;2.79;85.06
67093;SHT31;54011;50.772;7.730;2023-03-08T02:43:00;2.84;84.80
67093;SHT31;54011;50.772;7.730;2023-03-08T02:45:26;2.93;84.56
67093;SHT31;54011;50.772;7.730;2023-03-08T02:47:51;2.76;85.05
67093;SHT31;54011;50.772;7.730;2023-03-08T02:50:17;2.89;84.88
67093;SHT31;54011;50.772;7.730;2023-03-08T02:52:43;2.96;84.39
67093;SHT31;54011;50.772;7.730;2023-03-08T02:55:09;2.94;84.17
67093;SHT31;54011;50.772;7.730;2023-03-08T02:57:34;2.94;84.48
67093;SHT31;54011;50.772;7.730;2023-03-08T03:00:03;2.93;84.68
67093;SHT31;54011;50.772;7.730;2023-03-08T03:02:28;3.00;84.39
67093;SHT31;54011;50.772;7.730;2023-03-08T03:04:57;2.84;84.89
67093;SHT31;54011;50.772;7.730;2023-03-08T03:07:22;2.84;85.00
67093;SHT31;54011;50.772;7.730;2023-03-08T03:09:48;3.00;84.60
67093;SHT31;54011;50.772;7.730;2023-03-08T03:12:15;2.90;84.26
67093;SHT31;54011;50.772;7.730;2023-03-08T03:14:41;2.92;84.35
67093;SHT31;54011;50.772;7.730;2023-03-08T03:17:06;2.86;84.79
67093;SHT31;54011;50.772;7.730;2023-03-08T03:19:33;2.83;84.74
67093;SHT31;54011;50.772;7.730;2023-03-08T03:21:59;2.89;84.90
67093;SHT31;54011;50.772;7.730;2023-03-08T03:24:25;2.89;84.46
67093;SHT31;54011;50.772;7.730;2023-03-08T03:26:54;2.92;84.54
67093;SHT31;54011;50.772;7.730;2023-03-08T03:29:23;2.84;84.91
67093;SHT31;54011;50.772;7.730;2023-03-08T03:31:54;2.64;84.84
67093;SHT31;54011;50.772;7.730;2023-03-08T03:34:20;2.56;85.67
67093;SHT31;54011;50.772;7.730;2023-03-08T03:36:47;2.73;85.14
67093;SHT31;54011;50.772;7.730;2023-03-08T03:39:13;2.87;84.74
67093;SHT31;54011;50.772;7.730;2023-03-08T03:41:39;2.90;84.63
67093;SHT31;54011;50.772;7.730;2023-03-08T03:44:09;2.86;84.54
67093;SHT31;54011;50.772;7.730;2023-03-08T03:46:35;2.71;84.73
67093;SHT31;54011;50.772;7.730;2023-03-08T03:49:02;2.64;84.90
67093;SHT31;54011;50.772;7.730;2023-03-08T03:51:33;2.87;84.74
67093;SHT31;54011;50.772;7.730;2023-03-08T03:54:11;2.82;84.46
67093;SHT31;54011;50.772;7.730;2023-03-08T03:56:41;2.62;85.11
67093;SHT31;54011;50.772;7.730;2023-03-08T03:59:06;2.84;85.04
67093;SHT31;54011;50.772;7.730;2023-03-08T04:01:32;2.71;84.87
67093;SHT31;54011;50.772;7.730;2023-03-08T04:04:09;2.76;84.90
67093;SHT31;54011;50.772;7.730;2023-03-08T04:06:36;2.83;84.58
67093;SHT31;54011;50.772;7.730;2023-03-08T04:09:06;2.86;84.55
67093;SHT31;54011;50.772;7.730;2023-03-08T04:11:37;2.86;84.54
67093;SHT31;54011;50.772;7.730;2023-03-08T04:14:05;2.86;84.54
67093;SHT31;54011;50.772;7.730;2023-03-08T04:16:36;2.73;84.82
67093;SHT31;54011;50.772;7.730;2023-03-08T04:19:10;2.66;85.60
67093;SHT31;54011;50.772;7.730;2023-03-08T04:21:38;2.77;85.45
67093;SHT31;54011;50.772;7.730;2023-03-08T04:24:04;3.00;84.23
67093;SHT31;54011;50.772;7.730;2023-03-08T04:26:30;2.94;84.15
67093;SHT31;54011;50.772;7.730;2023-03-08T04:28:55;2.96;84.41
67093;SHT31;54011;50.772;7.730;2023-03-08T04:31:26;3.03;83.91
67093;SHT31;54011;50.772;7.730;2023-03-08T04:33:53;2.94;84.22
67093;SHT31;54011;50.772;7.730;2023-03-08T04:36:20;3.01;83.72
67093;SHT31;54011;50.772;7.730;2023-03-08T04:38:47;3.01;83.76
67093;SHT31;54011;50.772;7.730;2023-03-08T04:41:13;2.83;84.87
67093;SHT31;54011;50.772;7.730;2023-03-08T04:43:58;2.73;85.24
67093;SHT31;54011;50.772;7.730;2023-03-08T04:46:33;2.62;85.50
67093;SHT31;54011;50.772;7.730;2023-03-08T04:48:59;2.72;84.89
67093;SHT31;54011;50.772;7.730;2023-03-08T04:51:29;2.79;84.74
67093;SHT31;54011;50.772;7.730;2023-03-08T04:53:57;2.67;85.07
67093;SHT31;54011;50.772;7.730;2023-03-08T04:56:22;2.86;84.76
67093;SHT31;54011;50.772;7.730;2023-03-08T04:58:49;2.87;84.83
67093;SHT31;54011;50.772;7.730;2023-03-08T05:01:20;2.87;84.76
67093;SHT31;54011;50.772;7.730;2023-03-08T05:03:47;2.87;84.26
67093;SHT31;54011;50.772;7.730;2023-03-08T05:06:19;3.04;84.15
67093;SHT31;54011;50.772;7.730;2023-03-08T05:08:46;2.92;84.72
67093;SHT31;54011;50.772;7.730;2023-03-08T05:11:23;2.94;84.31
67093;SHT31;54011;50.772;7.730;2023-03-08T05:13:51;2.87;84.95
67093;SHT31;54011;50.772;7.730;2023-03-08T05:16:17;2.99;84.58
67093;SHT31;54011;50.772;7.730;2023-03-08T05:18:43;2.89;85.05
67093;SHT31;54011;50.772;7.730;2023-03-08T05:21:12;2.87;84.83
67093;SHT31;54011;50.772;7.730;2023-03-08T05:23:38;2.72;84.92
67093;SHT31;54011;50.772;7.730;2023-03-08T05:26:06;2.87;84.62
67093;SHT31;54011;50.772;7.730;2023-03-08T05:28:34;2.77;85.09
67093;SHT31;54011;50.772;7.730;2023-03-08T05:31:07;2.84;84.72
67093;SHT31;54011;50.772;7.730;2023-03-08T05:33:36;2.93;84.41
67093;SHT31;54011;50.772;7.730;2023-03-08T05:36:02;2.93;84.04
67093;SHT31;54011;50.772;7.730;2023-03-08T05:38:28;2.86;84.52
67093;SHT31;54011;50.772;7.730;2023-03-08T05:40:54;2.93;84.21
67093;SHT31;54011;50.772;7.730;2023-03-08T05:43:23;2.87;84.07
67093;SHT31;54011;50.772;7.730;2023-03-08T05:45:57;2.72;85.06
67093;SHT31;54011;50.772;7.730;2023-03-08T05:48:24;2.76;84.16
67093;SHT31;54011;50.772;7.730;2023-03-08T05:50:51;2.69;85.21
67093;SHT31;54011;50.772;7.730;2023-03-08T05:53:17;2.53;85.70
67093;SHT31;54011;50.772;7.730;2023-03-08T05:55:43;2.46;85.75
67093;SHT31;54011;50.772;7.730;2023-03-08T05:58:10;2.42;86.42
67093;SHT31;54011;50.772;7.730;2023-03-08T06:00:35;2.52;85.67
67093;SHT31;54011;50.772;7.730;2023-03-08T06:03:01;2.56;85.70
67093;SHT31;54011;50.772;7.730;2023-03-08T06:05:31;2.38;86.19
67093;SHT31;54011;50.772;7.730;2023-03-08T06:07:58;2.42;86.50
67093;SHT31;54011;50.772;7.730;2023-03-08T06:10:27;2.49;86.23
67093;SHT31;54011;50.772;7.730;2023-03-08T06:12:53;2.43;86.61
67093;SHT31;54011;50.772;7.730;2023-03-08T06:15:22;2.50;86.18
67093;SHT31;54011;50.772;7.730;2023-03-08T06:17:51;2.77;85.58
67093;SHT31;54011;50.772;7.730;2023-03-08T06:20:18;2.76;85.31
67093;SHT31;54011;50.772;7.730;2023-03-08T06:22:47;2.79;85.13
67093;SHT31;54011;50.772;7.730;2023-03-08T06:25:13;2.63;85.73
67093;SHT31;54011;50.772;7.730;2023-03-08T06:27:39;2.73;85.31
67093;SHT31;54011;50.772;7.730;2023-03-08T06:30:19;2.83;85.00
67093;SHT31;54011;50.772;7.730;2023-03-08T06:32:45;2.69;85.11
67093;SHT31;54011;50.772;7.730;2023-03-08T06:35:11;2.69;85.80
67093;SHT31;54011;50.772;7.730;2023-03-08T06:37:42;2.66;85.76
67093;SHT31;54011;50.772;7.730;2023-03-08T06:40:09;2.75;85.48
67093;SHT31;54011;50.772;7.730;2023-03-08T06:42:37;2.56;86.18
67093;SHT31;54011;50.772;7.730;2023-03-08T06:45:02;2.82;85.25
67093;SHT31;54011;50.772;7.730;2023-03-08T06:47:28;2.89;85.02
67093;SHT31;54011;50.772;7.730;2023-03-08T06:49:55;2.93;85.16
67093;SHT31;54011;50.772;7.730;2023-03-08T06:52:21;3.00;84.75
67093;SHT31;54011;50.772;7.730;2023-03-08T06:54:46;2.97;84.55
67093;SHT31;54011;50.772;7.730;2023-03-08T06:57:12;3.11;84.55
67093;SHT31;54011;50.772;7.730;2023-03-08T06:59:37;3.11;84.35
67093;SHT31;54011;50.772;7.730;2023-03-08T07:02:02;2.89;85.45
67093;SHT31;54011;50.772;7.730;2023-03-08T07:04:29;3.17;84.34
67093;SHT31;54011;50.772;7.730;2023-03-08T07:06:55;3.01;84.68
67093;SHT31;54011;50.772;7.730;2023-03-08T07:09:21;2.93;84.97
67093;SHT31;54011;50.772;7.730;2023-03-08T07:11:47;3.20;84.62
67093;SHT31;54011;50.772;7.730;2023-03-08T07:14:16;3.17;84.62
67093;SHT31;54011;50.772;7.730;2023-03-08T07:16:41;3.08;85.16
67093;SHT31;54011;50.772;7.730;2023-03-08T07:19:08;3.28;84.87
67093;SHT31;54011;50.772;7.730;2023-03-08T07:21:33;3.18;85.21
67093;SHT31;54011;50.772;7.730;2023-03-08T07:23:58;3.44;84.43
67093;SHT31;54011;50.772;7.730;2023-03-08T07:26:24;3.51;83.84
67093;SHT31;54011;50.772;7.730;2023-03-08T07:28:49;3.42;84.14
67093;SHT31;54011;50.772;7.730;2023-03-08T07:31:16;3.32;84.46
67093;SHT31;54011;50.772;7.730;2023-03-08T07:33:42;3.42;84.16
67093;SHT31;54011;50.772;7.730;2023-03-08T07:36:07;3.58;84.34
67093;SHT31;54011;50.772;7.730;2023-03-08T07:38:32;3.32;85.20
67093;SHT31;54011;50.772;7.730;2023-03-08T07:40:58;3.39;85.31
67093;SHT31;54011;50.772;7.730;2023-03-08T07:43:23;3.66;84.81
67093;SHT31;54011;50.772;7.730;2023-03-08T07:45:59;3.64;84.79
67093;SHT31;54011;50.772;7.730;2023-03-08T07:48:25;3.83;84.22
67093;SHT31;54011;50.772;7.730;2023-03-08T07:50:50;3.69;84.02
67093;SHT31;54011;50.772;7.730;2023-03-08T07:53:16;3.83;84.04
67093;SHT31;54011;50.772;7.730;2023-03-08T07:55:41;3.81;84.30
67093;SHT31;54011;50.772;7.730;2023-03-08T07:58:07;3.83;84.02
67093;SHT31;54011;50.772;7.730;2023-03-08T08:00:32;3.92;83.82
67093;SHT31;54011;50.772;7.730;2023-03-08T08:02:58;3.71;84.48
67093;SHT31;54011;50.772;7.730;2023-03-08T08:05:23;3.59;84.87
67093;SHT31;54011;50.772;7.730;2023-03-08T08:07:49;3.89;84.05
67093;SHT31;54011;50.772;7.730;2023-03-08T08:10:15;3.58;84.62
67093;SHT31;54011;50.772;7.730;2023-03-08T08:12:41;3.54;85.34
67093;SHT31;54011;50.772;7.730;2023-03-08T08:15:08;3.76;84.53
67093;SHT31;54011;50.772;7.730;2023-03-08T08:17:35;3.79;84.57
67093;SHT31;54011;50.772;7.730;2023-03-08T08:20:01;3.68;84.99
67093;SHT31;54011;50.772;7.730;2023-03-08T08:22:28;3.72;84.86
67093;SHT31;54011;50.772;7.730;2023-03-08T08:24:53;3.48;85.28
67093;SHT31;54011;50.772;7.730;2023-03-08T08:27:19;3.79;84.36
67093;SHT31;54011;50.772;7.730;2023-03-08T08:29:44;3.83;84.12
67093;SHT31;54011;50.772;7.730;2023-03-08T08:32:13;3.82;84.35
67093;SHT31;54011;50.772;7.730;2023-03-08T08:34:39;3.78;84.53
67093;SHT31;54011;50.772;7.730;2023-03-08T08:37:04;3.81;84.54
67093;SHT31;54011;50.772;7.730;2023-03-08T08:39:29;3.62;85.23
67093;SHT31;54011;50.772;7.730;2023-03-08T08:41:55;3.73;84.78
67093;SHT31;54011;50.772;7.730;2023-03-08T08:44:20;3.76;84.85
67093;SHT31;54011;50.772;7.730;2023-03-08T08:46:46;3.82;84.39
67093;SHT31;54011;50.772;7.730;2023-03-08T08:49:12;3.87;84.53
67093;SHT31;54011;50.772;7.730;2023-03-08T08:51:37;4.16;83.86
67093;SHT31;54011;50.772;7.730;2023-03-08T08:54:03;4.14;83.48
67093;SHT31;54011;50.772;7.730;2023-03-08T08:56:29;4.29;83.37
67093;SHT31;54011;50.772;7.730;2023-03-08T08:59:00;4.14;83.48
67093;SHT31;54011;50.772;7.730;2023-03-08T09:01:28;4.23;83.56
67093;SHT31;54011;50.772;7.730;2023-03-08T09:03:55;4.29;83.20
67093;SHT31;54011;50.772;7.730;2023-03-08T09:06:22;4.07;83.86
67093;SHT31;54011;50.772;7.730;2023-03-08T09:08:49;3.95;84.06
67093;SHT31;54011;50.772;7.730;2023-03-08T09:11:15;3.96;84.47
67093;SHT31;54011;50.772;7.730;2023-03-08T09:13:41;4.17;83.69
67093;SHT31;54011;50.772;7.730;2023-03-08T09:16:19;3.82;84.07
67093;SHT31;54011;50.772;7.730;2023-03-08T09:18:45;4.37;83.08
67093;SHT31;54011;50.772;7.730;2023-03-08T09:21:12;4.48;83.04
67093;SHT31;54011;50.772;7.730;2023-03-08T09:23:38;4.50;82.65
67093;SHT31;54011;50.772;7.730;2023-03-08T09:26:04;4.57;82.23
67093;SHT31;54011;50.772;7.730;2023-03-08T09:28:31;4.91;81.06
67093;SHT31;54011;50.772;7.730;2023-03-08T09:30:57;5.19;80.31
67093;SHT31;54011;50.772;7.730;2023-03-08T09:33:22;5.19;79.64
67093;SHT31;54011;50.772;7.730;2023-03-08T09:35:57;5.33;79.80
67093;SHT31;54011;50.772;7.730;2023-03-08T09:38:23;5.11;80.55
67093;SHT31;54011;50.772;7.730;2023-03-08T09:41:13;5.00;80.43
67093;SHT31;54011;50.772;7.730;2023-03-08T09:44:28;4.72;81.76
67093;SHT31;54011;50.772;7.730;2023-03-08T09:46:58;4.71;81.92
67093;SHT31;54011;50.772;7.730;2023-03-08T09:49:28;4.89;81.62
67093;SHT31;54011;50.772;7.730;2023-03-08T09:52:05;5.05;81.29
67093;SHT31;54011;50.772;7.730;2023-03-08T09:54:34;4.79;80.65
67093;SHT31;54011;50.772;7.730;2023-03-08T09:57:04;4.84;80.74
67093;SHT31;54011;50.772;7.730;2023-03-08T09:59:41;4.48;81.28
67093;SHT31;54011;50.772;7.730;2023-03-08T10:02:19;4.72;81.43
67093;SHT31;54011;50.772;7.730;2023-03-08T10:07:56;4.48;82.33
67093;SHT31;54011;50.772;7.730;2023-03-08T10:10:40;4.34;82.39
67093;SHT31;54011;50.772;7.730;2023-03-08T10:15:47;4.86;81.40
67093;SHT31;54011;50.772;7.730;2023-03-08T10:18:29;4.67;82.21
67093;SHT31;54011;50.772;7.730;2023-03-08T10:20:58;5.22;80.79
67093;SHT31;54011;50.772;7.730;2023-03-08T10:23:23;5.09;80.71
67093;SHT31;54011;50.772;7.730;2023-03-08T10:25:50;4.81;81.20
67093;SHT31;54011;50.772;7.730;2023-03-08T10:28:19;4.84;81.50
67093;SHT31;54011;50.772;7.730;2023-03-08T10:33:17;5.61;79.87
67093;SHT31;54011;50.772;7.730;2023-03-08T10:36:00;6.09;77.92
67093;SHT31;54011;50.772;7.730;2023-03-08T10:38:32;5.91;77.84
67093;SHT31;54011;50.772;7.730;2023-03-08T10:43:49;5.50;79.49
67093;SHT31;54011;50.772;7.730;2023-03-08T10:46:18;5.56;79.98
67093;SHT31;54011;50.772;7.730;2023-03-08T10:48:44;5.46;79.53
67093;SHT31;54011;50.772;7.730;2023-03-08T10:51:21;5.48;79.40
67093;SHT31;54011;50.772;7.730;2023-03-08T10:54:00;5.43;79.99
67093;SHT31;54011;50.772;7.730;2023-03-08T10:56:43;5.15;79.86
67093;SHT31;54011;50.772;7.730;2023-03-08T10:59:17;5.39;79.52
67093;SHT31;54011;50.772;7.730;2023-03-08T11:01:51;5.37;79.67
67093;SHT31;54011;50.772;7.730;2023-03-08T11:04:19;5.56;79.53
67093;SHT31;54011;50.772;7.730;2023-03-08T11:06:46;5.65;79.81
67093;SHT31;54011;50.772;7.730;2023-03-08T11:11:44;5.27;79.91
67093;SHT31;54011;50.772;7.730;2023-03-08T11:14:10;5.77;78.75
67093;SHT31;54011;50.772;7.730;2023-03-08T11:22:02;5.64;79.39
67093;SHT31;54011;50.772;7.730;2023-03-08T11:30:26;5.61;79.90
67093;SHT31;54011;50.772;7.730;2023-03-08T11:38:37;5.58;79.72
67093;SHT31;54011;50.772;7.730;2023-03-08T11:41:37;5.63;79.66
67093;SHT31;54011;50.772;7.730;2023-03-08T11:57:44;6.40;76.80
67093;SHT31;54011;50.772;7.730;2023-03-08T12:00:29;6.12;76.99
67093;SHT31;54011;50.772;7.730;2023-03-08T12:03:05;5.83;78.51
67093;SHT31;54011;50.772;7.730;2023-03-08T12:05:41;5.71;79.39
67093;SHT31;54011;50.772;7.730;2023-03-08T12:08:32;5.63;79.83
67093;SHT31;54011;50.772;7.730;2023-03-08T12:11:03;5.79;79.49
67093;SHT31;54011;50.772;7.730;2023-03-08T12:13:38;6.04;79.18
67093;SHT31;54011;50.772;7.730;2023-03-08T12:16:17;5.85;78.86
67093;SHT31;54011;50.772;7.730;2023-03-08T12:19:09;5.75;79.52
67093;SHT31;54011;50.772;7.730;2023-03-08T12:21:48;6.16;79.88
67093;SHT31;54011;50.772;7.730;2023-03-08T12:27:03;5.90;80.12
67093;SHT31;54011;50.772;7.730;2023-03-08T12:29:40;5.57;79.94
67093;SHT31;54011;50.772;7.730;2023-03-08T12:32:09;5.53;80.92
67093;SHT31;54011;50.772;7.730;2023-03-08T12:34:38;5.88;80.08
67093;SHT31;54011;50.772;7.730;2023-03-08T12:37:18;5.79;79.72
67093;SHT31;54011;50.772;7.730;2023-03-08T12:40:04;5.93;79.77
67093;SHT31;54011;50.772;7.730;2023-03-08T12:42:38;6.04;79.50
67093;SHT31;54011;50.772;7.730;2023-03-08T12:45:26;6.39;80.07
67093;SHT31;54011;50.772;7.730;2023-03-08T12:50:40;6.57;77.95
67093;SHT31;54011;50.772;7.730;2023-03-08T12:53:27;5.70;81.18
67093;SHT31;54011;50.772;7.730;2023-03-08T12:56:33;6.18;80.97
67093;SHT31;54011;50.772;7.730;2023-03-08T12:59:23;6.26;79.64
67093;SHT31;54011;50.772;7.730;2023-03-08T13:09:26;5.70;81.23
67093;SHT31;54011;50.772;7.730;2023-03-08T13:12:22;5.81;81.17
67093;SHT31;54011;50.772;7.730;2023-03-08T13:17:52;5.95;80.92
67093;SHT31;54011;50.772;7.730;2023-03-08T13:20:33;6.02;81.05
67093;SHT31;54011;50.772;7.730;2023-03-08T13:28:38;5.68;82.50
67093;SHT31;54011;50.772;7.730;2023-03-08T13:31:19;6.12;81.14
67093;SHT31;54011;50.772;7.730;2023-03-08T13:33:53;6.21;80.18
67093;SHT31;54011;50.772;7.730;2023-03-08T13:36:29;6.25;80.13
67093;SHT31;54011;50.772;7.730;2023-03-08T13:38:58;6.29;80.41
67093;SHT31;54011;50.772;7.730;2023-03-08T13:41:38;6.22;81.06
67093;SHT31;54011;50.772;7.730;2023-03-08T13:44:17;6.19;81.34
67093;SHT31;54011;50.772;7.730;2023-03-08T13:46:44;6.02;81.45
67093;SHT31;54011;50.772;7.730;2023-03-08T13:49:23;6.35;80.23
67093;SHT31;54011;50.772;7.730;2023-03-08T13:51:52;6.45;80.29
67093;SHT31;54011;50.772;7.730;2023-03-08T13:54:31;6.19;81.17
67093;SHT31;54011;50.772;7.730;2023-03-08T13:57:03;6.25;81.18
67093;SHT31;54011;50.772;7.730;2023-03-08T13:59:32;6.21;81.54
67093;SHT31;54011;50.772;7.730;2023-03-08T14:02:00;6.37;80.91
67093;SHT31;54011;50.772;7.730;2023-03-08T14:04:28;6.21;81.24
67093;SHT31;54011;50.772;7.730;2023-03-08T14:06:59;6.21;82.23
67093;SHT31;54011;50.772;7.730;2023-03-08T14:09:25;5.90;83.47
67093;SHT31;54011;50.772;7.730;2023-03-08T14:11:58;6.22;82.12
67093;SHT31;54011;50.772;7.730;2023-03-08T14:14:29;6.36;81.29
67093;SHT31;54011;50.772;7.730;2023-03-08T14:16:56;6.26;81.04
67093;SHT31;54011;50.772;7.730;2023-03-08T14:19:37;6.25;81.96
67093;SHT31;54011;50.772;7.730;2023-03-08T14:24:35;6.28;81.69
67093;SHT31;54011;50.772;7.730;2023-03-08T14:29:42;6.16;81.99
67093;SHT31;54011;50.772;7.730;2023-03-08T14:34:47;5.78;83.83
67093;SHT31;54011;50.772;7.730;2023-03-08T14:37:25;6.09;83.16
67093;SHT31;54011;50.772;7.730;2023-03-08T14:39:53;6.12;83.44
67093;SHT31;54011;50.772;7.730;2023-03-08T14:42:23;5.87;83.77
67093;SHT31;54011;50.772;7.730;2023-03-08T14:45:01;5.93;83.77
67093;SHT31;54011;50.772;7.730;2023-03-08T14:47:30;5.94;84.05
67093;SHT31;54011;50.772;7.730;2023-03-08T14:52:27;6.08;83.14
67093;SHT31;54011;50.772;7.730;2023-03-08T14:54:55;6.14;83.63
67093;SHT31;54011;50.772;7.730;2023-03-08T14:57:23;6.18;83.06
67093;SHT31;54011;50.772;7.730;2023-03-08T14:59:50;6.14;83.65
67093;SHT31;54011;50.772;7.730;2023-03-08T15:02:16;6.11;83.41
67093;SHT31;54011;50.772;7.730;2023-03-08T15:04:43;6.26;83.34
67093;SHT31;54011;50.772;7.730;2023-03-08T15:07:20;6.36;83.08
67093;SHT31;54011;50.772;7.730;2023-03-08T15:09:50;6.26;83.15
67093;SHT31;54011;50.772;7.730;2023-03-08T15:12:16;6.06;83.80
67093;SHT31;54011;50.772;7.730;2023-03-08T15:14:43;5.83;84.46
67093;SHT31;54011;50.772;7.730;2023-03-08T15:17:08;5.88;84.51
67093;SHT31;54011;50.772;7.730;2023-03-08T15:19:34;5.88;84.55
67093;SHT31;54011;50.772;7.730;2023-03-08T15:22:03;6.04;83.93
67093;SHT31;54011;50.772;7.730;2023-03-08T15:24:29;6.06;84.08
67093;SHT31;54011;50.772;7.730;2023-03-08T15:26:55;5.88;84.66
67093;SHT31;54011;50.772;7.730;2023-03-08T15:29:31;5.79;85.34
67093;SHT31;54011;50.772;7.730;2023-03-08T15:31:58;5.70;85.47
67093;SHT31;54011;50.772;7.730;2023-03-08T15:34:23;5.78;85.25
67093;SHT31;54011;50.772;7.730;2023-03-08T15:36:50;6.02;84.38
67093;SHT31;54011;50.772;7.730;2023-03-08T15:39:16;5.75;85.44
67093;SHT31;54011;50.772;7.730;2023-03-08T15:41:41;5.79;85.08
67093;SHT31;54011;50.772;7.730;2023-03-08T15:44:07;5.77;85.38
67093;SHT31;54011;50.772;7.730;2023-03-08T15:46:34;5.85;84.92
67093;SHT31;54011;50.772;7.730;2023-03-08T15:49:01;5.73;85.30
67093;SHT31;54011;50.772;7.730;2023-03-08T15:51:32;5.36;86.63
67093;SHT31;54011;50.772;7.730;2023-03-08T15:53:59;5.53;86.30
67093;SHT31;54011;50.772;7.730;2023-03-08T15:56:24;5.73;85.78
67093;SHT31;54011;50.772;7.730;2023-03-08T15:58:51;5.68;85.71
67093;SHT31;54011;50.772;7.730;2023-03-08T16:01:17;5.63;85.83
67093;SHT31;54011;50.772;7.730;2023-03-08T16:03:44;5.78;84.88
67093;SHT31;54011;50.772;7.730;2023-03-08T16:06:13;5.70;85.32
67093;SHT31;54011;50.772;7.730;2023-03-08T16:08:39;5.60;85.34
67093;SHT31;54011;50.772;7.730;2023-03-08T16:11:17;5.48;85.81
67093;SHT31;54011;50.772;7.730;2023-03-08T16:13:48;5.42;85.99
67093;SHT31;54011;50.772;7.730;2023-03-08T16:16:14;5.36;86.54
67093;SHT31;54011;50.772;7.730;2023-03-08T16:18:40;5.36;86.32
67093;SHT31;54011;50.772;7.730;2023-03-08T16:21:07;5.54;85.81
67093;SHT31;54011;50.772;7.730;2023-03-08T16:23:35;5.67;85.16
67093;SHT31;54011;50.772;7.730;2023-03-08T16:26:05;5.58;85.72
67093;SHT31;54011;50.772;7.730;2023-03-08T16:28:31;5.57;85.49
67093;SHT31;54011;50.772;7.730;2023-03-08T16:30:57;5.60;85.50
67093;SHT31;54011;50.772;7.730;2023-03-08T16:33:25;5.73;84.94
67093;SHT31;54011;50.772;7.730;2023-03-08T16:35:53;5.46;85.80
67093;SHT31;54011;50.772;7.730;2023-03-08T16:38:19;5.58;85.37
67093;SHT31;54011;50.772;7.730;2023-03-08T16:40:44;5.63;85.26
67093;SHT31;54011;50.772;7.730;2023-03-08T16:43:10;5.60;85.39
67093;SHT31;54011;50.772;7.730;2023-03-08T16:45:36;5.61;85.51
67093;SHT31;54011;50.772;7.730;2023-03-08T16:48:03;5.53;85.57
67093;SHT31;54011;50.772;7.730;2023-03-08T16:50:28;5.54;85.39
67093;SHT31;54011;50.772;7.730;2023-03-08T16:52:57;5.33;86.31
67093;SHT31;54011;50.772;7.730;2023-03-08T16:55:25;5.33;86.18
67093;SHT31;54011;50.772;7.730;2023-03-08T16:57:50;5.46;86.29
67093;SHT31;54011;50.772;7.730;2023-03-08T17:00:16;5.54;85.33
67093;SHT31;54011;50.772;7.730;2023-03-08T17:02:43;5.12;87.28
67093;SHT31;54011;50.772;7.730;2023-03-08T17:05:10;5.44;85.97
67093;SHT31;54011;50.772;7.730;2023-03-08T17:07:37;5.39;86.01
67093;SHT31;54011;50.772;7.730;2023-03-08T17:10:04;5.29;86.47
67093;SHT31;54011;50.772;7.730;2023-03-08T17:12:30;5.50;85.62
67093;SHT31;54011;50.772;7.730;2023-03-08T17:14:55;5.37;86.14